Time;durP1;ratioP1;P1;durP2;ratioP2;P2;SDS_P1;SDS_P2;PMS_P1;PMS_P2;Temp;Humidity;BMP_temperature;BMP_pressure;BME280_temperature;BME280_humidity;BME280_pressure;Samples;Min_cycle;Max_cycle;Signal;HPM_P1;HPM_P2
2023/05/17 00:02:18;;;;;;;;;;;;;;;;;;5108633;28;19947;-55
2023/05/17 00:04:44;;;;;;;;;;;;;;;;;;5104140;28;19940;-55
2023/05/17 00:07:10;;;;;;;;;;;;;;;;;;5103818;28;19956;-55
2023/05/17 00:09:36;;;;;;;;;;;;;;;;;;5107633;28;20001;-55
2023/05/17 00:12:02;;;;;;;;;;;;;;;;;;5105813;28;19947;-56
2023/05/17 00:14:28;;;;;;;;;;;;;;;;;;5110332;28;20003;-55
2023/05/17 00:16:54;;;;;;;;;;;;;;;;;;5110588;28;20004;-56
2023/05/17 00:19:20;;;;;;;;;;;;;;;;;;5106658;27;19947;-55
2023/05/17 00:21:46;;;;;;;;;;;;;;;;;;5111684;28;19966;-55
2023/05/17 00:24:12;;;;;;;;;;;;;;;;;;5107250;28;19945;-55
2023/05/17 00:26:38;;;;;;;;;;;;;;;;;;5111929;27;20326;-55
2023/05/17 00:29:04;;;;;;;;;;;;;;;;;;5106031;27;19916;-55
2023/05/17 00:31:30;;;;;;;;;;;;;;;;;;5116433;27;19967;-56
2023/05/17 00:33:56;;;;;;;;;;;;;;;;;;5105841;28;20155;-56
2023/05/17 00:36:22;;;;;;;;;;;;;;;;;;5109376;28;19951;-56
2023/05/17 00:38:48;;;;;;;;;;;;;;;;;;5110061;28;19954;-56
2023/05/17 00:41:14;;;;;;;;;;;;;;;;;;5109273;28;19969;-56
2023/05/17 00:43:40;;;;;;;;;;;;;;;;;;5107602;27;19916;-57
2023/05/17 00:46:06;;;;;;;;;;;;;;;;;;5107941;27;19912;-56
2023/05/17 00:48:32;;;;;;;;;;;;;;;;;;5103927;27;19907;-57
2023/05/17 00:50:58;;;;;;;;;;;;;;;;;;5109414;28;19912;-56
2023/05/17 00:53:24;;;;;;;;;;;;;;;;;;5106546;27;19954;-57
2023/05/17 00:55:50;;;;;;;;;;;;;;;;;;5105072;28;19915;-57
2023/05/17 00:58:15;;;;;;;;;;;;;;;;;;5109260;27;20387;-57
2023/05/17 01:00:41;;;;;;;;;;;;;;;;;;5107569;27;19959;-57
2023/05/17 01:03:07;;;;;;;;;;;;;;;;;;5107720;28;19947;-57
2023/05/17 01:05:33;;;;;;;;;;;;;;;;;;5099799;27;20423;-57
2023/05/17 01:07:59;;;;;;;;;;;;;;;;;;5109705;28;20456;-57
2023/05/17 01:10:25;;;;;;;;;;;;;;;;;;5104085;28;19947;-57
2023/05/17 01:12:51;;;;;;;;;;;;;;;;;;5106880;28;20406;-57
2023/05/17 01:15:17;;;;;;;;;;;;;;;;;;5108008;28;20327;-57
2023/05/17 01:17:43;;;;;;;;;;;;;;;;;;5108337;28;20378;-57
2023/05/17 01:20:09;;;;;;;;;;;;;;;;;;5100259;28;19908;-57
2023/05/17 01:22:35;;;;;;;;;;;;;;;;;;5112189;27;19968;-57
2023/05/17 01:25:01;;;;;;;;;;;;;;;;;;5107446;28;20490;-57
2023/05/17 01:27:27;;;;;;;;;;;;;;;;;;5105852;28;19939;-58
2023/05/17 01:29:53;;;;;;;;;;;;;;;;;;5092914;28;20493;-57
2023/05/17 01:32:19;;;;;;;;;;;;;;;;;;5111108;27;19950;-57
2023/05/17 01:34:45;;;;;;;;;;;;;;;;;;5103176;28;20347;-57
2023/05/17 01:37:11;;;;;;;;;;;;;;;;;;5107026;28;19954;-57
2023/05/17 01:39:37;;;;;;;;;;;;;;;;;;5108694;27;20397;-58
2023/05/17 01:42:03;;;;;;;;;;;;;;;;;;5108256;28;19981;-57
2023/05/17 01:44:29;;;;;;;;;;;;;;;;;;5106253;28;20008;-57
2023/05/17 01:46:55;;;;;;;;;;;;;;;;;;5109073;28;19958;-57
2023/05/17 01:49:21;;;;;;;;;;;;;;;;;;5100653;28;19911;-57
2023/05/17 01:51:48;;;;;;;;;;;;;;;;;;5105022;28;19920;-57
2023/05/17 01:54:13;;;;;;;;;;;;;;;;;;5105217;28;20347;-56
2023/05/17 01:56:39;;;;;;;;;;;;;;;;;;5103351;27;19916;-56
2023/05/17 01:59:05;;;;;;;;;;;;;;;;;;5101340;28;19952;-56
2023/05/17 02:01:31;;;;;;;;;;;;;;;;;;5108256;27;20425;-56
2023/05/17 02:03:57;;;;;;;;;;;;;;;;;;5105678;28;19958;-56
2023/05/17 02:06:23;;;;;;;;;;;;;;;;;;5087512;27;19939;-56
2023/05/17 02:08:49;;;;;;;;;;;;;;;;;;5101744;28;20582;-56
2023/05/17 02:11:15;;;;;;;;;;;;;;;;;;5107364;28;20256;-56
2023/05/17 02:13:41;;;;;;;;;;;;;;;;;;5104758;28;19958;-56
2023/05/17 02:16:07;;;;;;;;;;;;;;;;;;5106578;28;19943;-55
2023/05/17 02:18:34;;;;;;;;;;;;;;;;;;5109172;27;19953;-56
2023/05/17 02:21:00;;;;;;;;;;;;;;;;;;5102386;28;19919;-56
2023/05/17 02:23:26;;;;;;;;;;;;;;;;;;5106365;28;20408;-55
2023/05/17 02:25:52;;;;;;;;;;;;;;;;;;5109171;28;20301;-55
2023/05/17 02:28:18;;;;;;;;;;;;;;;;;;5107485;27;20390;-56
2023/05/17 02:30:44;;;;;;;;;;;;;;;;;;5104056;28;19961;-55
2023/05/17 02:33:10;;;;;;;;;;;;;;;;;;5107623;28;19911;-56
2023/05/17 02:35:36;;;;;;;;;;;;;;;;;;5105342;28;19911;-55
2023/05/17 02:38:02;;;;;;;;;;;;;;;;;;5105046;28;20364;-56
2023/05/17 02:40:28;;;;;;;;;;;;;;;;;;5105370;28;19958;-55
2023/05/17 02:42:54;;;;;;;;;;;;;;;;;;5110709;27;19968;-55
2023/05/17 02:45:20;;;;;;;;;;;;;;;;;;5106506;28;19989;-55
2023/05/17 02:47:46;;;;;;;;;;;;;;;;;;5086241;27;20052;-55
2023/05/17 02:50:12;;;;;;;;;;;;;;;;;;5109158;27;19935;-55
2023/05/17 02:52:38;;;;;;;;;;;;;;;;;;5107357;28;19985;-55
2023/05/17 02:55:04;;;;;;;;;;;;;;;;;;5107230;28;19911;-55
2023/05/17 02:57:30;;;;;;;;;;;;;;;;;;5105163;27;20674;-55
2023/05/17 02:59:56;;;;;;;;;;;;;;;;;;5103825;27;20394;-55
2023/05/17 03:02:22;;;;;;;;;;;;;;;;;;5105867;28;20386;-55
2023/05/17 03:04:48;;;;;;;;;;;;;;;;;;5104239;28;19955;-55
2023/05/17 03:07:13;;;;;;;;;;;;;;;;;;5103063;27;20371;-55
2023/05/17 03:09:40;;;;;;;;;;;;;;;;;;5103971;28;20228;-55
2023/05/17 03:12:06;;;;;;;;;;;;;;;;;;5104290;28;19908;-54
2023/05/17 03:14:32;;;;;;;;;;;;;;;;;;5100362;28;19918;-55
2023/05/17 03:16:58;;;;;;;;;;;;;;;;;;5109737;27;20010;-55
2023/05/17 03:19:24;;;;;;;;;;;;;;;;;;5101057;28;19947;-55
2023/05/17 03:21:50;;;;;;;;;;;;;;;;;;5107822;28;20414;-55
2023/05/17 03:24:16;;;;;;;;;;;;;;;;;;5104584;28;20360;-55
2023/05/17 03:26:42;;;;;;;;;;;;;;;;;;5108787;27;19950;-56
2023/05/17 03:29:08;;;;;;;;;;;;;;;;;;5097264;28;19985;-55
2023/05/17 03:31:34;;;;;;;;;;;;;;;;;;5103527;28;19970;-55
2023/05/17 03:34:00;;;;;;;;;;;;;;;;;;5082295;28;19922;-55
2023/05/17 03:36:26;;;;;;;;;;;;;;;;;;5106877;28;19947;-55
2023/05/17 03:38:52;;;;;;;;;;;;;;;;;;5104301;28;20008;-55
2023/05/17 03:41:18;;;;;;;;;;;;;;;;;;5109153;28;20000;-55
2023/05/17 03:43:44;;;;;;;;;;;;;;;;;;5099506;28;19988;-55
2023/05/17 03:46:10;;;;;;;;;;;;;;;;;;5107662;28;19977;-55
2023/05/17 03:48:36;;;;;;;;;;;;;;;;;;5098377;28;20251;-55
2023/05/17 03:51:02;;;;;;;;;;;;;;;;;;5107456;28;19911;-55
2023/05/17 03:53:28;;;;;;;;;;;;;;;;;;5093185;28;20458;-55
2023/05/17 03:55:54;;;;;;;;;;;;;;;;;;5105322;28;19951;-55
2023/05/17 03:58:20;;;;;;;;;;;;;;;;;;5097987;28;19923;-57
2023/05/17 04:00:46;;;;;;;;;;;;;;;;;;5107252;28;19958;-55
2023/05/17 04:03:12;;;;;;;;;;;;;;;;;;5104529;28;20002;-56
2023/05/17 04:05:38;;;;;;;;;;;;;;;;;;5100590;28;20363;-55
2023/05/17 04:08:04;;;;;;;;;;;;;;;;;;5105850;28;19911;-55
2023/05/17 04:10:30;;;;;;;;;;;;;;;;;;5105431;28;19951;-55
2023/05/17 04:12:56;;;;;;;;;;;;;;;;;;5104551;28;19958;-56
2023/05/17 04:15:22;;;;;;;;;;;;;;;;;;5103873;28;19949;-56
2023/05/17 04:17:47;;;;;;;;;;;;;;;;;;5103052;28;19978;-56
2023/05/17 04:20:13;;;;;;;;;;;;;;;;;;5105439;28;19942;-56
2023/05/17 04:22:39;;;;;;;;;;;;;;;;;;5103615;28;20761;-58
2023/05/17 04:25:05;;;;;;;;;;;;;;;;;;5100146;28;19935;-55
2023/05/17 04:27:31;;;;;;;;;;;;;;;;;;5105755;28;19984;-55
2023/05/17 04:29:57;;;;;;;;;;;;;;;;;;5093565;28;20402;-55
2023/05/17 04:32:23;;;;;;;;;;;;;;;;;;5095416;28;19911;-55
2023/05/17 04:34:50;;;;;;;;;;;;;;;;;;5096815;28;20370;-55
2023/05/17 04:37:16;;;;;;;;;;;;;;;;;;5098288;28;19918;-55
2023/05/17 04:39:42;;;;;;;;;;;;;;;;;;5097430;28;19919;-55
2023/05/17 04:42:08;;;;;;;;;;;;;;;;;;5098349;28;19924;-55
2023/05/17 04:44:34;;;;;;;;;;;;;;;;;;5098342;28;19916;-55
2023/05/17 04:47:01;;;;;;;;;;;;;;;;;;5094057;28;19916;-57
2023/05/17 04:49:27;;;;;;;;;;;;;;;;;;5096565;28;20366;-55
2023/05/17 04:51:53;;;;;;;;;;;;;;;;;;5096660;28;19986;-55
2023/05/17 04:54:19;;;;;;;;;;;;;;;;;;5083083;28;20002;-55
2023/05/17 04:56:45;;;;;;;;;;;;;;;;;;5099717;28;20374;-55
2023/05/17 04:59:10;;;;;;;;;;;;;;;;;;5099578;27;19947;-55
2023/05/17 05:01:36;;;;;;;;;;;;;;;;;;5095646;27;20006;-55
2023/05/17 05:04:05;;;;;;;;;;;;;;;;;;5098868;27;19955;-55
2023/05/17 05:06:32;;;;;;;;;;;;;;;;;;5102043;28;19908;-55
2023/05/17 05:08:58;;;;;;;;;;;;;;;;;;5098690;28;20390;-55
2023/05/17 05:11:24;;;;;;;;;;;;;;;;;;5098720;27;19939;-55
2023/05/17 05:13:50;;;;;;;;;;;;;;;;;;5099240;28;19984;-55
2023/05/17 05:16:16;;;;;;;;;;;;;;;;;;5099751;28;19958;-55
2023/05/17 05:18:42;;;;;;;;;;;;;;;;;;5094301;27;19965;-55
2023/05/17 05:21:07;;;;;;;;;;;;;;;;;;5097251;28;19955;-55
2023/05/17 05:23:33;;;;;;;;;;;;;;;;;;5104698;27;19958;-55
2023/05/17 05:26:00;;;;;;;;;;;;;;;;;;5101341;28;19980;-55
2023/05/17 05:28:26;;;;;;;;;;;;;;;;;;5099366;28;20351;-55
2023/05/17 05:30:52;;;;;;;;;;;;;;;;;;5103912;27;19950;-55
2023/05/17 05:33:18;;;;;;;;;;;;;;;;;;5102622;27;20362;-55
2023/05/17 05:35:44;;;;;;;;;;;;;;;;;;5099101;27;19912;-56
2023/05/17 05:38:10;;;;;;;;;;;;;;;;;;5099967;27;19915;-56
2023/05/17 05:40:36;;;;;;;;;;;;;;;;;;5099081;27;19916;-55
2023/05/17 05:43:02;;;;;;;;;;;;;;;;;;5103150;27;19950;-55
2023/05/17 05:45:28;;;;;;;;;;;;;;;;;;5096736;28;20389;-55
2023/05/17 05:47:54;;;;;;;;;;;;;;;;;;5099320;27;21434;-55
2023/05/17 05:50:20;;;;;;;;;;;;;;;;;;5099393;27;20379;-55
2023/05/17 05:52:46;;;;;;;;;;;;;;;;;;5097666;27;20364;-55
2023/05/17 05:55:12;;;;;;;;;;;;;;;;;;5093363;28;19911;-55
2023/05/17 05:57:38;;;;;;;;;;;;;;;;;;5096312;27;19914;-55
2023/05/17 06:00:04;;;;;;;;;;;;;;;;;;5100840;27;20024;-55
2023/05/17 06:02:30;;;;;;;;;;;;;;;;;;5100508;27;19915;-55
2023/05/17 06:04:56;;;;;;;;;;;;;;;;;;5100389;27;19923;-57
2023/05/17 06:07:22;;;;;;;;;;;;;;;;;;5077712;28;19914;-57
2023/05/17 06:09:48;;;;;;;;;;;;;;;;;;5098561;28;20190;-57
2023/05/17 06:12:15;;;;;;;;;;;;;;;;;;5098068;27;19922;-57
2023/05/17 06:14:41;;;;;;;;;;;;;;;;;;5098685;27;19915;-57
2023/05/17 06:17:07;;;;;;;;;;;;;;;;;;5105544;28;20194;-57
2023/05/17 06:19:33;;;;;;;;;;;;;;;;;;5105197;28;19962;-57
2023/05/17 06:21:59;;;;;;;;;;;;;;;;;;5083636;28;19946;-57
2023/05/17 06:24:25;;;;;;;;;;;;;;;;;;5103600;28;20050;-57
2023/05/17 06:26:51;;;;;;;;;;;;;;;;;;5101957;28;20351;-58
2023/05/17 06:29:17;;;;;;;;;;;;;;;;;;5095012;28;20010;-58
2023/05/17 06:31:43;;;;;;;;;;;;;;;;;;5097526;27;19961;-58
2023/05/17 06:34:08;;;;;;;;;;;;;;;;;;5090875;28;19990;-58
2023/05/17 06:36:35;;;;;;;;;;;;;;;;;;5098927;28;20965;-58
2023/05/17 06:39:01;;;;;;;;;;;;;;;;;;5083868;28;19916;-58
2023/05/17 06:41:27;;;;;;;;;;;;;;;;;;5105345;27;19919;-58
2023/05/17 06:43:53;;;;;;;;;;;;;;;;;;5099701;27;19969;-58
2023/05/17 06:46:19;;;;;;;;;;;;;;;;;;5095798;27;20572;-58
2023/05/17 06:48:45;;;;;;;;;;;;;;;;;;5099972;27;20007;-58
2023/05/17 06:51:11;;;;;;;;;;;;;;;;;;5097778;27;20381;-58
2023/05/17 06:53:37;;;;;;;;;;;;;;;;;;5092876;27;19950;-58
2023/05/17 06:56:02;;;;;;;;;;;;;;;;;;5096463;27;20478;-58
2023/05/17 06:58:28;;;;;;;;;;;;;;;;;;5098089;28;19912;-58
2023/05/17 07:00:54;;;;;;;;;;;;;;;;;;5098506;27;20027;-58
2023/05/17 07:03:20;;;;;;;;;;;;;;;;;;5096629;28;19984;-58
2023/05/17 07:05:46;;;;;;;;;;;;;;;;;;5096069;27;19948;-58
2023/05/17 07:08:14;;;;;;;;;;;;;;;;;;5095850;27;19972;-58
2023/05/17 07:10:40;;;;;;;;;;;;;;;;;;5098241;28;19926;-57
2023/05/17 07:13:05;;;;;;;;;;;;;;;;;;5095438;28;19947;-57
2023/05/17 07:15:31;;;;;;;;;;;;;;;;;;5094803;27;19942;-58
2023/05/17 07:17:58;;;;;;;;;;;;;;;;;;5091628;27;20004;-61
2023/05/17 07:20:24;;;;;;;;;;;;;;;;;;5094236;28;19918;-58
2023/05/17 07:22:50;;;;;;;;;;;;;;;;;;5096832;28;19915;-57
2023/05/17 07:25:17;;;;;;;;;;;;;;;;;;5095730;28;19918;-57
2023/05/17 07:27:43;;;;;;;;;;;;;;;;;;5095631;27;19919;-58
2023/05/17 07:30:10;;;;;;;;;;;;;;;;;;5098033;28;20274;-58
2023/05/17 07:32:36;;;;;;;;;;;;;;;;;;5096129;28;19911;-58
2023/05/17 07:35:02;;;;;;;;;;;;;;;;;;5096811;28;19918;-58
2023/05/17 07:37:28;;;;;;;;;;;;;;;;;;5096509;28;20362;-58
2023/05/17 07:39:54;;;;;;;;;;;;;;;;;;5093128;28;19966;-58
2023/05/17 07:42:20;;;;;;;;;;;;;;;;;;5095506;28;19969;-62
2023/05/17 07:44:47;;;;;;;;;;;;;;;;;;5095688;28;20071;-58
2023/05/17 07:47:13;;;;;;;;;;;;;;;;;;5096961;28;19919;-60
2023/05/17 07:49:39;;;;;;;;;;;;;;;;;;5093500;28;19912;-58
2023/05/17 07:52:05;;;;;;;;;;;;;;;;;;5093637;28;20060;-58
2023/05/17 07:54:31;;;;;;;;;;;;;;;;;;5076282;28;20583;-58
2023/05/17 07:56:58;;;;;;;;;;;;;;;;;;5093522;28;20021;-58
2023/05/17 07:59:24;;;;;;;;;;;;;;;;;;5093373;28;19911;-58
2023/05/17 08:01:50;;;;;;;;;;;;;;;;;;5098089;28;20254;-58
2023/05/17 08:04:17;;;;;;;;;;;;;;;;;;5090648;28;20817;-58
2023/05/17 08:06:47;;;;;;;;;;;;;;;;;;5095241;28;20290;-58
2023/05/17 08:09:14;;;;;;;;;;;;;;;;;;5093916;28;19920;-59
2023/05/17 08:11:44;;;;;;;;;;;;;;;;;;5089566;28;20520;-59
2023/05/17 08:14:10;;;;;;;;;;;;;;;;;;5103872;28;20283;-58
2023/05/17 08:16:36;;;;;;;;;;;;;;;;;;5110971;28;19954;-62
2023/05/17 08:19:02;;;;;;;;;;;;;;;;;;5099496;28;19962;-58
2023/05/17 08:21:28;;;;;;;;;;;;;;;;;;5105220;28;19916;-58
2023/05/17 08:23:54;;;;;;;;;;;;;;;;;;5112735;28;19907;-58
2023/05/17 08:26:20;;;;;;;;;;;;;;;;;;5107554;28;19912;-61
2023/05/17 08:28:46;;;;;;;;;;;;;;;;;;5104392;28;19907;-58
2023/05/17 08:31:12;;;;;;;;;;;;;;;;;;5108574;27;19981;-58
2023/05/17 08:33:38;;;;;;;;;;;;;;;;;;5111194;27;20315;-58
2023/05/17 08:36:07;;;;;;;;;;;;;;;;;;5110721;27;19951;-63
2023/05/17 08:38:33;;;;;;;;;;;;;;;;;;5097607;27;19931;-58
2023/05/17 08:40:59;;;;;;;;;;;;;;;;;;5100643;27;19944;-58
2023/05/17 08:43:25;;;;;;;;;;;;;;;;;;5096561;27;20320;-58
2023/05/17 08:45:51;;;;;;;;;;;;;;;;;;5101096;28;19923;-58
2023/05/17 08:48:18;;;;;;;;;;;;;;;;;;5102479;27;19915;-58
2023/05/17 08:50:45;;;;;;;;;;;;;;;;;;5099421;27;19920;-58
2023/05/17 08:53:12;;;;;;;;;;;;;;;;;;5099610;27;20125;-58
2023/05/17 08:55:39;;;;;;;;;;;;;;;;;;5092351;27;19908;-58
2023/05/17 08:58:06;;;;;;;;;;;;;;;;;;5094669;27;19916;-58
2023/05/17 09:00:32;;;;;;;;;;;;;;;;;;5098218;28;19907;-59
2023/05/17 09:02:58;;;;;;;;;;;;;;;;;;5097268;28;20348;-61
2023/05/17 09:05:24;;;;;;;;;;;;;;;;;;5095045;27;19933;-58
2023/05/17 09:07:50;;;;;;;;;;;;;;;;;;5097938;27;19939;-58
2023/05/17 09:10:16;;;;;;;;;;;;;;;;;;5093085;28;19961;-58
2023/05/17 09:12:42;;;;;;;;;;;;;;;;;;5097440;27;19907;-57
2023/05/17 09:15:09;;;;;;;;;;;;;;;;;;5090593;27;20863;-57
2023/05/17 09:17:35;;;;;;;;;;;;;;;;;;5096424;27;20279;-57
2023/05/17 09:20:02;;;;;;;;;;;;;;;;;;5097905;27;20325;-57
2023/05/17 09:22:28;;;;;;;;;;;;;;;;;;5116509;27;20002;-58
2023/05/17 09:24:54;;;;;;;;;;;;;;;;;;5080167;28;19969;-57
2023/05/17 09:27:20;;;;;;;;;;;;;;;;;;5094202;27;20000;-57
2023/05/17 09:29:47;;;;;;;;;;;;;;;;;;5098265;27;20415;-58
2023/05/17 09:32:13;;;;;;;;;;;;;;;;;;5095908;27;19911;-57
2023/05/17 09:34:39;;;;;;;;;;;;;;;;;;5096938;27;20412;-57
2023/05/17 09:37:05;;;;;;;;;;;;;;;;;;5098107;27;20347;-57
2023/05/17 09:39:32;;;;;;;;;;;;;;;;;;5093678;28;20030;-56
2023/05/17 09:41:58;;;;;;;;;;;;;;;;;;5097194;28;19926;-57
2023/05/17 09:44:24;;;;;;;;;;;;;;;;;;5098106;27;19919;-57
2023/05/17 09:46:50;;;;;;;;;;;;;;;;;;5102438;27;20646;-56
2023/05/17 09:49:16;;;;;;;;;;;;;;;;;;5097446;27;19907;-57
2023/05/17 09:51:42;;;;;;;;;;;;;;;;;;5092081;27;19914;-53
2023/05/17 09:54:09;;;;;;;;;;;;;;;;;;5079836;28;19907;-55
2023/05/17 09:56:35;;;;;;;;;;;;;;;;;;5098851;27;19961;-55
2023/05/17 09:59:01;;;;;;;;;;;;;;;;;;5092446;28;19911;-65
2023/05/17 10:01:27;;;;;;;;;;;;;;;;;;5098515;27;19922;-58
2023/05/17 10:03:53;;;;;;;;;;;;;;;;;;5098454;28;20354;-58
2023/05/17 10:06:19;;;;;;;;;;;;;;;;;;5102976;27;19912;-58
2023/05/17 10:08:45;;;;;;;;;;;;;;;;;;5093909;28;19934;-57
2023/05/17 10:11:11;;;;;;;;;;;;;;;;;;5107709;27;20372;-59
2023/05/17 10:13:37;;;;;;;;;;;;;;;;;;5101181;27;20013;-59
2023/05/17 10:16:03;;;;;;;;;;;;;;;;;;5101744;27;19918;-59
2023/05/17 10:18:30;;;;;;;;;;;;;;;;;;5106821;27;19911;-58
2023/05/17 10:20:56;;;;;;;;;;;;;;;;;;5110867;28;19971;-59
2023/05/17 10:23:22;;;;;;;;;;;;;;;;;;5114591;27;19998;-58
2023/05/17 10:25:48;;;;;;;;;;;;;;;;;;5111715;27;20283;-57
2023/05/17 10:28:14;;;;;;;;;;;;;;;;;;5109317;27;20363;-57
2023/05/17 10:30:40;;;;;;;;;;;;;;;;;;5120991;27;19958;-61
2023/05/17 10:33:07;;;;;;;;;;;;;;;;;;5100238;27;19912;-61
2023/05/17 10:35:34;;;;;;;;;;;;;;;;;;5105626;27;19911;-61
2023/05/17 10:38:00;;;;;;;;;;;;;;;;;;5109306;27;20271;-63
2023/05/17 10:40:26;;;;;;;;;;;;;;;;;;5097958;27;19972;-63
2023/05/17 10:42:53;;;;;;;;;;;;;;;;;;5099478;27;19916;-61
2023/05/17 10:45:20;;;;;;;;;;;;;;;;;;5096307;27;20509;-61
2023/05/17 10:47:47;;;;;;;;;;;;;;;;;;5103130;27;20019;-64
2023/05/17 10:50:13;;;;;;;;;;;;;;;;;;5090392;28;19915;-66
2023/05/17 10:52:39;;;;;;;;;;;;;;;;;;5107664;28;19912;-62
2023/05/17 10:55:06;;;;;;;;;;;;;;;;;;5086250;28;20482;-62
2023/05/17 10:57:32;;;;;;;;;;;;;;;;;;5101957;27;20272;-61
2023/05/17 10:59:58;;;;;;;;;;;;;;;;;;5108561;27;19911;-61
2023/05/17 11:02:24;;;;;;;;;;;;;;;;;;5113780;27;20002;-61
2023/05/17 11:04:55;;;;;;;;;;;;;;;;;;5104268;27;19915;-61
2023/05/17 11:07:22;;;;;;;;;;;;;;;;;;5110930;27;19915;-62
2023/05/17 11:09:48;;;;;;;;;;;;;;;;;;5122670;27;20436;-63
2023/05/17 11:12:14;;;;;;;;;;;;;;;;;;5113431;27;19923;-62
2023/05/17 11:14:40;;;;;;;;;;;;;;;;;;5101395;28;20469;-63
2023/05/17 11:17:06;;;;;;;;;;;;;;;;;;5105544;27;19947;-69
2023/05/17 11:19:32;;;;;;;;;;;;;;;;;;5104850;27;19971;-62
2023/05/17 11:21:59;;;;;;;;;;;;;;;;;;5087281;27;19915;-62
2023/05/17 11:24:28;;;;;;;;;;;;;;;;;;5103134;28;20365;-63
2023/05/17 11:26:55;;;;;;;;;;;;;;;;;;5104240;28;19911;-63
2023/05/17 11:29:21;;;;;;;;;;;;;;;;;;5102048;28;19916;-62
2023/05/17 11:31:47;;;;;;;;;;;;;;;;;;5102885;27;19926;-63
2023/05/17 11:34:13;;;;;;;;;;;;;;;;;;5104052;27;19911;-60
2023/05/17 11:36:39;;;;;;;;;;;;;;;;;;5108542;28;19939;-61
2023/05/17 11:39:06;;;;;;;;;;;;;;;;;;5106162;28;19911;-60
2023/05/17 11:41:32;;;;;;;;;;;;;;;;;;5102755;28;19920;-62
2023/05/17 11:43:58;;;;;;;;;;;;;;;;;;5104981;28;19914;-59
2023/05/17 11:46:24;;;;;;;;;;;;;;;;;;5120778;28;19916;-61
2023/05/17 11:48:51;;;;;;;;;;;;;;;;;;5106006;28;19955;-61
2023/05/17 11:51:18;;;;;;;;;;;;;;;;;;5102644;28;19920;-63
2023/05/17 11:53:45;;;;;;;;;;;;;;;;;;5101933;28;19927;-62
2023/05/17 11:56:11;;;;;;;;;;;;;;;;;;5112874;28;19911;-63
2023/05/17 11:58:37;;;;;;;;;;;;;;;;;;5131917;27;20412;-61
2023/05/17 12:01:04;;;;;;;;;;;;;;;;;;5106522;27;20402;-63
2023/05/17 12:03:30;;;;;;;;;;;;;;;;;;5100599;28;19923;-62
2023/05/17 12:05:56;;;;;;;;;;;;;;;;;;5105672;27;20356;-63
2023/05/17 12:08:22;;;;;;;;;;;;;;;;;;5106732;28;20023;-62
2023/05/17 12:10:48;;;;;;;;;;;;;;;;;;5110424;28;19994;-62
2023/05/17 12:13:15;;;;;;;;;;;;;;;;;;5111333;27;19946;-62
2023/05/17 12:15:40;;;;;;;;;;;;;;;;;;5112489;28;19937;-62
2023/05/17 12:18:06;;;;;;;;;;;;;;;;;;5110171;28;19947;-62
2023/05/17 12:20:34;;;;;;;;;;;;;;;;;;5103675;28;20499;-62
2023/05/17 12:23:00;;;;;;;;;;;;;;;;;;5110126;28;19934;-62
2023/05/17 12:25:28;;;;;;;;;;;;;;;;;;5106152;28;20003;-62
2023/05/17 12:27:54;;;;;;;;;;;;;;;;;;5106686;27;20320;-62
2023/05/17 12:30:20;;;;;;;;;;;;;;;;;;5099913;28;19963;-62
2023/05/17 12:32:46;;;;;;;;;;;;;;;;;;5095354;28;19983;-60
2023/05/17 12:35:12;;;;;;;;;;;;;;;;;;5095977;28;20222;-63
2023/05/17 12:37:38;;;;;;;;;;;;;;;;;;5097340;28;19951;-58
2023/05/17 12:40:04;;;;;;;;;;;;;;;;;;5098268;27;19911;-59
2023/05/17 12:42:30;;;;;;;;;;;;;;;;;;5099476;28;19962;-59
2023/05/17 12:44:56;;;;;;;;;;;;;;;;;;5101918;28;19923;-60
2023/05/17 12:47:23;;;;;;;;;;;;;;;;;;5085755;28;19912;-59
2023/05/17 12:49:52;;;;;;;;;;;;;;;;;;5096995;28;19908;-60
2023/05/17 12:52:18;;;;;;;;;;;;;;;;;;5081729;28;19918;-60
2023/05/17 12:54:45;;;;;;;;;;;;;;;;;;5096770;28;20364;-60
2023/05/17 12:57:12;;;;;;;;;;;;;;;;;;5102004;27;19915;-60
2023/05/17 12:59:38;;;;;;;;;;;;;;;;;;5107756;28;19941;-60
2023/05/17 13:02:04;;;;;;;;;;;;;;;;;;5109154;28;19911;-61
2023/05/17 13:04:30;;;;;;;;;;;;;;;;;;5108348;27;19918;-61
2023/05/17 13:06:56;;;;;;;;;;;;;;;;;;5100937;28;19959;-60
2023/05/17 13:09:23;;;;;;;;;;;;;;;;;;5108894;27;19912;-61
2023/05/17 13:11:49;;;;;;;;;;;;;;;;;;5098410;28;20468;-61
2023/05/17 13:14:15;;;;;;;;;;;;;;;;;;5101572;28;20328;-60
2023/05/17 13:16:41;;;;;;;;;;;;;;;;;;5101189;28;19947;-61
2023/05/17 13:19:07;;;;;;;;;;;;;;;;;;5106537;28;19942;-61
2023/05/17 13:21:33;;;;;;;;;;;;;;;;;;5103196;28;19927;-60
2023/05/17 13:23:59;;;;;;;;;;;;;;;;;;5103171;28;19955;-60
2023/05/17 13:26:25;;;;;;;;;;;;;;;;;;5108926;28;20027;-60
2023/05/17 13:28:52;;;;;;;;;;;;;;;;;;5109781;28;19999;-60
2023/05/17 13:31:18;;;;;;;;;;;;;;;;;;5102418;27;19965;-61
2023/05/17 13:33:44;;;;;;;;;;;;;;;;;;5100717;28;19911;-60
2023/05/17 13:36:10;;;;;;;;;;;;;;;;;;5084183;28;19911;-60
2023/05/17 13:38:36;;;;;;;;;;;;;;;;;;5101989;28;19961;-59
2023/05/17 13:41:02;;;;;;;;;;;;;;;;;;5102219;27;19913;-60
2023/05/17 13:43:28;;;;;;;;;;;;;;;;;;5100927;28;19918;-60
2023/05/17 13:45:57;;;;;;;;;;;;;;;;;;5107865;28;20290;-60
2023/05/17 13:48:23;;;;;;;;;;;;;;;;;;5105128;27;19912;-59
2023/05/17 13:50:49;;;;;;;;;;;;;;;;;;5108213;28;20018;-59
2023/05/17 13:53:15;;;;;;;;;;;;;;;;;;5105883;28;19957;-59
2023/05/17 13:55:42;;;;;;;;;;;;;;;;;;5105450;27;19941;-60
2023/05/17 13:58:08;;;;;;;;;;;;;;;;;;5105586;27;19912;-60
2023/05/17 14:00:34;;;;;;;;;;;;;;;;;;5107573;28;19911;-57
2023/05/17 14:03:00;;;;;;;;;;;;;;;;;;5106788;28;20398;-57
2023/05/17 14:05:26;;;;;;;;;;;;;;;;;;5102947;27;19907;-58
2023/05/17 14:07:52;;;;;;;;;;;;;;;;;;5102980;28;20239;-57
2023/05/17 14:10:18;;;;;;;;;;;;;;;;;;5101052;28;20631;-57
2023/05/17 14:12:45;;;;;;;;;;;;;;;;;;5103177;28;19911;-57
2023/05/17 14:15:14;;;;;;;;;;;;;;;;;;5103214;28;19923;-57
2023/05/17 14:17:40;;;;;;;;;;;;;;;;;;5085096;28;19953;-57
2023/05/17 14:20:06;;;;;;;;;;;;;;;;;;5101317;28;19912;-57
2023/05/17 14:22:32;;;;;;;;;;;;;;;;;;5106199;27;19939;-59
2023/05/17 14:24:58;;;;;;;;;;;;;;;;;;5107052;28;20002;-56
2023/05/17 14:27:24;;;;;;;;;;;;;;;;;;5098963;28;19994;-55
2023/05/17 14:29:50;;;;;;;;;;;;;;;;;;5101193;27;19915;-56
2023/05/17 14:32:17;;;;;;;;;;;;;;;;;;5101722;28;19928;-56
2023/05/17 14:34:44;;;;;;;;;;;;;;;;;;5096208;27;19959;-57
2023/05/17 14:37:10;;;;;;;;;;;;;;;;;;5099063;28;19912;-57
2023/05/17 14:39:36;;;;;;;;;;;;;;;;;;5096652;27;19914;-57
2023/05/17 14:42:02;;;;;;;;;;;;;;;;;;5099646;27;19922;-58
2023/05/17 14:44:28;;;;;;;;;;;;;;;;;;5081358;28;19920;-57
2023/05/17 14:46:54;;;;;;;;;;;;;;;;;;5097013;28;19912;-57
2023/05/17 14:49:20;;;;;;;;;;;;;;;;;;5101777;28;20407;-57
2023/05/17 14:51:47;;;;;;;;;;;;;;;;;;5102060;28;20197;-59
2023/05/17 14:54:13;;;;;;;;;;;;;;;;;;5097514;27;19912;-58
2023/05/17 14:56:39;;;;;;;;;;;;;;;;;;5100275;28;19915;-57
2023/05/17 14:59:06;;;;;;;;;;;;;;;;;;5102163;28;19938;-58
2023/05/17 15:01:32;;;;;;;;;;;;;;;;;;5098706;28;19926;-58
2023/05/17 15:03:58;;;;;;;;;;;;;;;;;;5091121;28;20029;-58
2023/05/17 15:06:24;;;;;;;;;;;;;;;;;;5089349;28;20010;-57
2023/05/17 15:08:50;;;;;;;;;;;;;;;;;;5094502;28;19916;-61
2023/05/17 15:11:16;;;;;;;;;;;;;;;;;;5099630;28;19915;-58
2023/05/17 15:13:42;;;;;;;;;;;;;;;;;;5098817;27;20279;-60
2023/05/17 15:16:09;;;;;;;;;;;;;;;;;;5103073;28;19961;-60
2023/05/17 15:18:35;;;;;;;;;;;;;;;;;;5106912;27;19911;-59
2023/05/17 15:21:01;;;;;;;;;;;;;;;;;;5102739;28;20497;-59
2023/05/17 15:23:27;;;;;;;;;;;;;;;;;;5102254;28;19996;-58
2023/05/17 15:25:53;;;;;;;;;;;;;;;;;;5104314;28;19932;-60
2023/05/17 15:28:19;;;;;;;;;;;;;;;;;;5104016;28;19966;-60
2023/05/17 15:30:46;;;;;;;;;;;;;;;;;;5108545;28;19942;-60
2023/05/17 15:33:12;;;;;;;;;;;;;;;;;;5102692;28;19911;-60
2023/05/17 15:35:38;;;;;;;;;;;;;;;;;;5088094;28;19945;-60
2023/05/17 15:38:05;;;;;;;;;;;;;;;;;;5111348;27;20056;-59
2023/05/17 15:40:31;;;;;;;;;;;;;;;;;;5092351;28;19920;-62
2023/05/17 15:42:58;;;;;;;;;;;;;;;;;;5106917;28;20002;-62
2023/05/17 15:45:24;;;;;;;;;;;;;;;;;;5086726;28;20322;-61
2023/05/17 15:47:50;;;;;;;;;;;;;;;;;;5103317;28;20032;-59
2023/05/17 15:50:16;;;;;;;;;;;;;;;;;;5098422;28;19946;-59
2023/05/17 15:52:42;;;;;;;;;;;;;;;;;;5103325;28;20355;-59
2023/05/17 15:55:08;;;;;;;;;;;;;;;;;;5095374;28;19919;-59
2023/05/17 15:57:34;;;;;;;;;;;;;;;;;;5095568;28;19953;-58
2023/05/17 16:00:00;;;;;;;;;;;;;;;;;;5102402;28;19959;-58
2023/05/17 16:02:29;;;;;;;;;;;;;;;;;;5096263;28;20324;-57
2023/05/17 16:04:55;;;;;;;;;;;;;;;;;;5094508;28;19919;-57
2023/05/17 16:07:23;;;;;;;;;;;;;;;;;;5097329;28;19955;-57
2023/05/17 16:09:49;;;;;;;;;;;;;;;;;;5095347;28;20321;-57
2023/05/17 16:12:15;;;;;;;;;;;;;;;;;;5096120;28;19948;-57
2023/05/17 16:14:43;;;;;;;;;;;;;;;;;;5085556;28;19918;-59
2023/05/17 16:17:09;;;;;;;;;;;;;;;;;;5083846;28;19911;-59
2023/05/17 16:19:35;;;;;;;;;;;;;;;;;;5095888;28;19908;-62
2023/05/17 16:22:01;;;;;;;;;;;;;;;;;;5114492;28;19967;-58
2023/05/17 16:24:27;;;;;;;;;;;;;;;;;;5106857;28;19960;-58
2023/05/17 16:26:53;;;;;;;;;;;;;;;;;;5107766;28;20379;-57
2023/05/17 16:29:20;;;;;;;;;;;;;;;;;;5102680;28;19936;-56
2023/05/17 16:31:46;;;;;;;;;;;;;;;;;;5106093;28;19944;-56
2023/05/17 16:34:12;;;;;;;;;;;;;;;;;;5105345;28;19916;-56
2023/05/17 16:36:38;;;;;;;;;;;;;;;;;;5118421;27;19908;-56
2023/05/17 16:39:04;;;;;;;;;;;;;;;;;;5103296;28;19943;-56